sensor_id;sensor_type;location;lat;lon;timestamp;pressure;altitude;pressure_sealevel;temperature;humidity
20003;BME280;10162;41.600;23.806;2022-07-06T00:01:30;95204.03;;;18.63;100.00
20003;BME280;10162;41.600;23.806;2022-07-06T00:03:56;95196.78;;;18.75;100.00
20003;BME280;10162;41.600;23.806;2022-07-06T00:06:22;95172.09;;;18.69;100.00
20003;BME280;10162;41.600;23.806;2022-07-06T00:12:34;95175.78;;;18.35;100.00
20003;BME280;10162;41.600;23.806;2022-07-06T00:15:00;95167.84;;;18.35;100.00
20003;BME280;10162;41.600;23.806;2022-07-06T00:21:13;95151.41;;;18.33;100.00
20003;BME280;10162;41.600;23.806;2022-07-06T00:23:38;95140.97;;;18.43;100.00
20003;BME280;10162;41.600;23.806;2022-07-06T00:26:04;95145.38;;;18.54;100.00
20003;BME280;10162;41.600;23.806;2022-07-06T00:32:23;95143.00;;;18.19;100.00
20003;BME280;10162;41.600;23.806;2022-07-06T00:34:50;95133.28;;;18.08;100.00
20003;BME280;10162;41.600;23.806;2022-07-06T00:37:16;95137.47;;;18.21;100.00
20003;BME280;10162;41.600;23.806;2022-07-06T00:39:42;95140.50;;;18.12;100.00
20003;BME280;10162;41.600;23.806;2022-07-06T00:42:08;95139.69;;;18.62;100.00
20003;BME280;10162;41.600;23.806;2022-07-06T00:44:34;95114.50;;;18.60;100.00
20003;BME280;10162;41.600;23.806;2022-07-06T00:47:00;95097.88;;;18.47;100.00
20003;BME280;10162;41.600;23.806;2022-07-06T00:53:13;95089.13;;;17.92;100.00
20003;BME280;10162;41.600;23.806;2022-07-06T00:55:39;95086.34;;;17.82;100.00
20003;BME280;10162;41.600;23.806;2022-07-06T00:58:15;95088.03;;;17.88;100.00
20003;BME280;10162;41.600;23.806;2022-07-06T01:00:41;95098.19;;;17.96;100.00
20003;BME280;10162;41.600;23.806;2022-07-06T01:03:10;95074.19;;;18.19;100.00
20003;BME280;10162;41.600;23.806;2022-07-06T01:05:36;95067.47;;;18.11;100.00
20003;BME280;10162;41.600;23.806;2022-07-06T01:11:49;95050.28;;;17.75;100.00
20003;BME280;10162;41.600;23.806;2022-07-06T01:14:16;95041.13;;;17.83;100.00
20003;BME280;10162;41.600;23.806;2022-07-06T01:16:43;95040.34;;;17.83;100.00
20003;BME280;10162;41.600;23.806;2022-07-06T01:22:59;95050.69;;;17.56;100.00
20003;BME280;10162;41.600;23.806;2022-07-06T01:25:25;95015.00;;;17.53;100.00
20003;BME280;10162;41.600;23.806;2022-07-06T01:31:46;95022.81;;;17.31;100.00
20003;BME280;10162;41.600;23.806;2022-07-06T01:34:13;95013.75;;;17.27;100.00
20003;BME280;10162;41.600;23.806;2022-07-06T01:36:38;95006.19;;;17.31;100.00
20003;BME280;10162;41.600;23.806;2022-07-06T01:42:51;95007.53;;;17.50;100.00
20003;BME280;10162;41.600;23.806;2022-07-06T01:45:18;95001.38;;;17.61;100.00
20003;BME280;10162;41.600;23.806;2022-07-06T01:51:32;94988.56;;;17.87;100.00
20003;BME280;10162;41.600;23.806;2022-07-06T01:53:58;94990.81;;;17.78;100.00
20003;BME280;10162;41.600;23.806;2022-07-06T01:56:25;94993.63;;;17.88;100.00
20003;BME280;10162;41.600;23.806;2022-07-06T02:02:42;94993.59;;;18.05;100.00
20003;BME280;10162;41.600;23.806;2022-07-06T02:05:11;94997.66;;;17.96;100.00
20003;BME280;10162;41.600;23.806;2022-07-06T02:11:24;95012.13;;;17.88;100.00
20003;BME280;10162;41.600;23.806;2022-07-06T02:13:49;95014.19;;;18.03;100.00
20003;BME280;10162;41.600;23.806;2022-07-06T02:16:15;95017.72;;;17.92;100.00
20003;BME280;10162;41.600;23.806;2022-07-06T02:22:28;95044.50;;;17.79;100.00
20003;BME280;10162;41.600;23.806;2022-07-06T02:24:53;95047.13;;;17.79;100.00
20003;BME280;10162;41.600;23.806;2022-07-06T02:30:46;95049.06;;;17.66;100.00
20003;BME280;10162;41.600;23.806;2022-07-06T02:33:11;95044.06;;;17.53;100.00
20003;BME280;10162;41.600;23.806;2022-07-06T02:35:37;95041.50;;;17.58;100.00
20003;BME280;10162;41.600;23.806;2022-07-06T02:41:07;95045.75;;;17.59;100.00
20003;BME280;10162;41.600;23.806;2022-07-06T02:43:33;95051.63;;;17.61;100.00
20003;BME280;10162;41.600;23.806;2022-07-06T02:45:59;95043.59;;;17.56;100.00
20003;BME280;10162;41.600;23.806;2022-07-06T02:52:12;95039.41;;;17.44;100.00
20003;BME280;10162;41.600;23.806;2022-07-06T02:54:39;95034.47;;;17.47;100.00
20003;BME280;10162;41.600;23.806;2022-07-06T02:57:05;95033.00;;;17.40;100.00
20003;BME280;10162;41.600;23.806;2022-07-06T02:59:31;95029.66;;;17.61;100.00
20003;BME280;10162;41.600;23.806;2022-07-06T03:01:56;95028.44;;;17.35;100.00
20003;BME280;10162;41.600;23.806;2022-07-06T03:04:22;95030.28;;;17.34;100.00
20003;BME280;10162;41.600;23.806;2022-07-06T03:06:48;95027.53;;;17.29;100.00
20003;BME280;10162;41.600;23.806;2022-07-06T03:13:00;95028.97;;;17.20;100.00
20003;BME280;10162;41.600;23.806;2022-07-06T03:15:26;95026.00;;;17.17;100.00
20003;BME280;10162;41.600;23.806;2022-07-06T03:21:39;95035.09;;;17.09;100.00
20003;BME280;10162;41.600;23.806;2022-07-06T03:24:06;95027.28;;;16.86;100.00
20003;BME280;10162;41.600;23.806;2022-07-06T03:26:32;95030.03;;;16.91;100.00
20003;BME280;10162;41.600;23.806;2022-07-06T03:32:44;95038.03;;;17.24;100.00
20003;BME280;10162;41.600;23.806;2022-07-06T03:35:10;95035.44;;;17.13;100.00
20003;BME280;10162;41.600;23.806;2022-07-06T03:41:23;95038.41;;;17.61;100.00
20003;BME280;10162;41.600;23.806;2022-07-06T03:43:50;95031.66;;;17.09;100.00
20003;BME280;10162;41.600;23.806;2022-07-06T03:46:16;95029.63;;;17.27;100.00
20003;BME280;10162;41.600;23.806;2022-07-06T03:52:30;95032.84;;;17.29;100.00
20003;BME280;10162;41.600;23.806;2022-07-06T03:54:56;95040.59;;;17.64;100.00
20003;BME280;10162;41.600;23.806;2022-07-06T04:01:13;95044.72;;;17.77;100.00
20003;BME280;10162;41.600;23.806;2022-07-06T04:03:39;95045.94;;;17.86;100.00
20003;BME280;10162;41.600;23.806;2022-07-06T04:06:06;95046.59;;;18.32;100.00
20003;BME280;10162;41.600;23.806;2022-07-06T04:12:20;95058.16;;;18.26;100.00
20003;BME280;10162;41.600;23.806;2022-07-06T04:14:45;95063.81;;;18.34;100.00
20003;BME280;10162;41.600;23.806;2022-07-06T04:17:11;95058.94;;;17.88;100.00
20003;BME280;10162;41.600;23.806;2022-07-06T04:19:56;95063.00;;;17.62;100.00
20003;BME280;10162;41.600;23.806;2022-07-06T04:22:21;95065.50;;;17.68;100.00
20003;BME280;10162;41.600;23.806;2022-07-06T04:24:47;95072.13;;;18.21;100.00
20003;BME280;10162;41.600;23.806;2022-07-06T04:31:01;95070.59;;;19.07;100.00
20003;BME280;10162;41.600;23.806;2022-07-06T04:33:26;95061.88;;;19.12;100.00
20003;BME280;10162;41.600;23.806;2022-07-06T04:35:53;95057.81;;;19.31;100.00
20003;BME280;10162;41.600;23.806;2022-07-06T04:42:09;95066.00;;;19.51;100.00
20003;BME280;10162;41.600;23.806;2022-07-06T04:44:36;95068.25;;;19.64;100.00
20003;BME280;10162;41.600;23.806;2022-07-06T04:47:02;95073.28;;;19.66;100.00
20003;BME280;10162;41.600;23.806;2022-07-06T04:49:33;95078.22;;;19.84;100.00
20003;BME280;10162;41.600;23.806;2022-07-06T04:51:59;95084.41;;;19.95;100.00
20003;BME280;10162;41.600;23.806;2022-07-06T04:54:27;95087.13;;;20.05;100.00
20003;BME280;10162;41.600;23.806;2022-07-06T04:56:52;95073.88;;;20.05;100.00
20003;BME280;10162;41.600;23.806;2022-07-06T04:59:39;95080.31;;;20.14;100.00
20003;BME280;10162;41.600;23.806;2022-07-06T05:02:05;95079.25;;;19.78;100.00
20003;BME280;10162;41.600;23.806;2022-07-06T05:04:31;95068.84;;;20.03;100.00
20003;BME280;10162;41.600;23.806;2022-07-06T05:06:57;95073.69;;;20.53;100.00
20003;BME280;10162;41.600;23.806;2022-07-06T05:09:35;95078.84;;;20.75;100.00
20003;BME280;10162;41.600;23.806;2022-07-06T05:12:01;95081.78;;;20.79;100.00
20003;BME280;10162;41.600;23.806;2022-07-06T05:14:28;95088.19;;;20.83;100.00
20003;BME280;10162;41.600;23.806;2022-07-06T05:16:54;95097.25;;;20.97;100.00
20003;BME280;10162;41.600;23.806;2022-07-06T05:23:08;95093.13;;;20.64;100.00
20003;BME280;10162;41.600;23.806;2022-07-06T05:25:35;95089.22;;;20.82;100.00
20003;BME280;10162;41.600;23.806;2022-07-06T05:31:15;95098.28;;;20.86;100.00
20003;BME280;10162;41.600;23.806;2022-07-06T05:33:42;95103.53;;;20.76;100.00
20003;BME280;10162;41.600;23.806;2022-07-06T05:36:08;95101.47;;;20.83;100.00
20003;BME280;10162;41.600;23.806;2022-07-06T05:41:57;95106.59;;;21.04;100.00
20003;BME280;10162;41.600;23.806;2022-07-06T05:44:23;95099.13;;;20.96;100.00
20003;BME280;10162;41.600;23.806;2022-07-06T05:46:49;95114.84;;;21.08;100.00
20003;BME280;10162;41.600;23.806;2022-07-06T05:49:18;95104.50;;;21.07;100.00
20003;BME280;10162;41.600;23.806;2022-07-06T05:52:02;95099.44;;;21.10;100.00
20003;BME280;10162;41.600;23.806;2022-07-06T05:54:28;95101.66;;;21.28;100.00
20003;BME280;10162;41.600;23.806;2022-07-06T05:56:54;95117.06;;;21.26;100.00
20003;BME280;10162;41.600;23.806;2022-07-06T06:02:42;95104.41;;;21.84;100.00
20003;BME280;10162;41.600;23.806;2022-07-06T06:05:11;95104.44;;;21.99;100.00
20003;BME280;10162;41.600;23.806;2022-07-06T06:11:25;95095.91;;;22.27;100.00
20003;BME280;10162;41.600;23.806;2022-07-06T06:13:51;95093.22;;;22.48;100.00
20003;BME280;10162;41.600;23.806;2022-07-06T06:16:18;95085.53;;;22.31;100.00
20003;BME280;10162;41.600;23.806;2022-07-06T06:21:49;95074.03;;;22.46;100.00
20003;BME280;10162;41.600;23.806;2022-07-06T06:24:17;95085.50;;;22.41;99.08
20003;BME280;10162;41.600;23.806;2022-07-06T06:26:43;95090.00;;;22.66;92.24
20003;BME280;10162;41.600;23.806;2022-07-06T06:29:44;95089.72;;;23.37;91.86
20003;BME280;10162;41.600;23.806;2022-07-06T06:32:11;95079.56;;;23.39;91.08
20003;BME280;10162;41.600;23.806;2022-07-06T06:34:38;95091.75;;;22.96;94.00
20003;BME280;10162;41.600;23.806;2022-07-06T06:37:04;95087.53;;;22.85;92.02
20003;BME280;10162;41.600;23.806;2022-07-06T06:39:30;95075.28;;;22.89;92.42
20003;BME280;10162;41.600;23.806;2022-07-06T06:41:55;95074.91;;;23.16;91.48
20003;BME280;10162;41.600;23.806;2022-07-06T06:44:21;95074.56;;;23.27;91.65
20003;BME280;10162;41.600;23.806;2022-07-06T06:46:50;95077.44;;;23.36;94.60
20003;BME280;10162;41.600;23.806;2022-07-06T06:49:36;95082.16;;;23.93;90.93
20003;BME280;10162;41.600;23.806;2022-07-06T06:52:02;95083.88;;;23.79;90.58
20003;BME280;10162;41.600;23.806;2022-07-06T06:54:28;95074.31;;;23.73;90.53
20003;BME280;10162;41.600;23.806;2022-07-06T06:56:53;95070.41;;;23.94;91.56
20003;BME280;10162;41.600;23.806;2022-07-06T07:03:06;95062.34;;;23.99;89.66
20003;BME280;10162;41.600;23.806;2022-07-06T07:05:32;95064.31;;;24.51;85.91
20003;BME280;10162;41.600;23.806;2022-07-06T07:10:54;95054.81;;;24.88;82.26
20003;BME280;10162;41.600;23.806;2022-07-06T07:13:20;95050.16;;;24.98;79.25
20003;BME280;10162;41.600;23.806;2022-07-06T07:15:46;95043.88;;;24.84;79.40
20003;BME280;10162;41.600;23.806;2022-07-06T07:18:13;95037.25;;;24.58;81.61
20003;BME280;10162;41.600;23.806;2022-07-06T07:20:38;95038.53;;;25.08;80.48
20003;BME280;10162;41.600;23.806;2022-07-06T07:23:04;95044.56;;;24.47;74.70
20003;BME280;10162;41.600;23.806;2022-07-06T07:25:30;95039.03;;;24.86;73.77
20003;BME280;10162;41.600;23.806;2022-07-06T07:28:00;95041.16;;;24.89;71.88
20003;BME280;10162;41.600;23.806;2022-07-06T07:30:26;95025.44;;;25.06;73.93
20003;BME280;10162;41.600;23.806;2022-07-06T07:32:51;95033.25;;;25.40;71.23
20003;BME280;10162;41.600;23.806;2022-07-06T07:35:17;95044.34;;;25.71;70.25
20003;BME280;10162;41.600;23.806;2022-07-06T07:41:00;95036.84;;;24.93;72.19
20003;BME280;10162;41.600;23.806;2022-07-06T07:43:26;95020.03;;;25.30;71.68
20003;BME280;10162;41.600;23.806;2022-07-06T07:45:52;95019.53;;;25.28;71.36
20003;BME280;10162;41.600;23.806;2022-07-06T07:48:17;95014.63;;;25.17;69.63
20003;BME280;10162;41.600;23.806;2022-07-06T07:50:43;95008.53;;;25.48;69.70
20003;BME280;10162;41.600;23.806;2022-07-06T07:53:09;95011.47;;;25.84;69.08
20003;BME280;10162;41.600;23.806;2022-07-06T07:55:35;95013.13;;;26.13;69.56
20003;BME280;10162;41.600;23.806;2022-07-06T07:58:13;95022.53;;;25.97;65.53
20003;BME280;10162;41.600;23.806;2022-07-06T08:00:39;95012.50;;;25.70;64.18
20003;BME280;10162;41.600;23.806;2022-07-06T08:03:04;95013.94;;;25.81;63.12
20003;BME280;10162;41.600;23.806;2022-07-06T08:05:30;95017.25;;;26.24;63.52
20003;BME280;10162;41.600;23.806;2022-07-06T08:07:56;95018.16;;;26.60;66.90
20003;BME280;10162;41.600;23.806;2022-07-06T08:10:22;95017.56;;;27.18;65.76
20003;BME280;10162;41.600;23.806;2022-07-06T08:12:48;95005.28;;;26.90;67.09
20003;BME280;10162;41.600;23.806;2022-07-06T08:15:14;95005.47;;;26.52;62.77
20003;BME280;10162;41.600;23.806;2022-07-06T08:17:47;95009.72;;;27.22;63.30
20003;BME280;10162;41.600;23.806;2022-07-06T08:20:13;95003.28;;;26.82;60.68
20003;BME280;10162;41.600;23.806;2022-07-06T08:22:39;95006.94;;;26.86;62.77
20003;BME280;10162;41.600;23.806;2022-07-06T08:25:05;95001.28;;;27.01;62.83
20003;BME280;10162;41.600;23.806;2022-07-06T08:27:54;95007.16;;;27.03;67.02
20003;BME280;10162;41.600;23.806;2022-07-06T08:30:20;95003.38;;;27.40;64.85
20003;BME280;10162;41.600;23.806;2022-07-06T08:32:45;95001.72;;;27.66;61.60
20003;BME280;10162;41.600;23.806;2022-07-06T08:35:11;95002.56;;;27.53;63.71
20003;BME280;10162;41.600;23.806;2022-07-06T08:37:49;94998.13;;;27.35;64.11
20003;BME280;10162;41.600;23.806;2022-07-06T08:40:15;95000.22;;;27.38;60.69
20003;BME280;10162;41.600;23.806;2022-07-06T08:42:42;94998.78;;;27.40;59.98
20003;BME280;10162;41.600;23.806;2022-07-06T08:45:08;94997.81;;;27.72;59.10
20003;BME280;10162;41.600;23.806;2022-07-06T08:47:44;95000.91;;;27.43;56.21
20003;BME280;10162;41.600;23.806;2022-07-06T08:50:10;94998.69;;;27.45;56.07
20003;BME280;10162;41.600;23.806;2022-07-06T08:52:36;94987.47;;;27.43;59.10
20003;BME280;10162;41.600;23.806;2022-07-06T08:55:02;94998.53;;;27.64;60.11
20003;BME280;10162;41.600;23.806;2022-07-06T09:00:25;94995.25;;;27.89;58.40
20003;BME280;10162;41.600;23.806;2022-07-06T09:02:51;94996.53;;;27.92;56.87
20003;BME280;10162;41.600;23.806;2022-07-06T09:05:24;94989.19;;;28.06;58.56
20003;BME280;10162;41.600;23.806;2022-07-06T09:08:14;94991.25;;;27.78;55.48
20003;BME280;10162;41.600;23.806;2022-07-06T09:10:40;94985.69;;;28.28;58.23
20003;BME280;10162;41.600;23.806;2022-07-06T09:13:08;94991.16;;;28.14;56.96
20003;BME280;10162;41.600;23.806;2022-07-06T09:15:35;94988.78;;;28.13;54.59
20003;BME280;10162;41.600;23.806;2022-07-06T09:18:31;94999.09;;;28.19;54.31
20003;BME280;10162;41.600;23.806;2022-07-06T09:21:01;94995.38;;;28.38;52.65
20003;BME280;10162;41.600;23.806;2022-07-06T09:23:27;94976.09;;;28.44;54.73
20003;BME280;10162;41.600;23.806;2022-07-06T09:25:54;94983.53;;;28.39;58.26
20003;BME280;10162;41.600;23.806;2022-07-06T09:31:25;94987.69;;;28.93;55.63
20003;BME280;10162;41.600;23.806;2022-07-06T09:34:06;94981.31;;;28.80;52.49
20003;BME280;10162;41.600;23.806;2022-07-06T09:36:44;94979.00;;;28.56;52.30
20003;BME280;10162;41.600;23.806;2022-07-06T09:42:16;94975.75;;;29.33;56.02
20003;BME280;10162;41.600;23.806;2022-07-06T09:44:49;94977.09;;;28.96;56.82
20003;BME280;10162;41.600;23.806;2022-07-06T09:47:23;94976.50;;;29.68;57.61
20003;BME280;10162;41.600;23.806;2022-07-06T09:49:55;94965.59;;;29.39;54.54
20003;BME280;10162;41.600;23.806;2022-07-06T09:52:23;94956.22;;;29.45;54.34
20003;BME280;10162;41.600;23.806;2022-07-06T09:54:49;94960.81;;;29.79;51.95
20003;BME280;10162;41.600;23.806;2022-07-06T09:57:15;94943.19;;;29.98;47.56
20003;BME280;10162;41.600;23.806;2022-07-06T09:59:40;94969.97;;;30.04;49.43
20003;BME280;10162;41.600;23.806;2022-07-06T10:02:07;94966.81;;;30.57;48.93
20003;BME280;10162;41.600;23.806;2022-07-06T10:04:34;94965.69;;;30.03;44.76
20003;BME280;10162;41.600;23.806;2022-07-06T10:07:00;94957.81;;;29.72;44.75
20003;BME280;10162;41.600;23.806;2022-07-06T10:13:20;94954.41;;;30.18;48.57
20003;BME280;10162;41.600;23.806;2022-07-06T10:15:47;94951.94;;;29.95;46.35
20003;BME280;10162;41.600;23.806;2022-07-06T10:18:36;94943.25;;;29.55;52.63
20003;BME280;10162;41.600;23.806;2022-07-06T10:21:03;94938.16;;;29.28;51.43
20003;BME280;10162;41.600;23.806;2022-07-06T10:23:29;94936.88;;;29.08;50.88
20003;BME280;10162;41.600;23.806;2022-07-06T10:25:57;94934.31;;;29.98;51.99
20003;BME280;10162;41.600;23.806;2022-07-06T10:28:53;94936.41;;;29.67;53.48
20003;BME280;10162;41.600;23.806;2022-07-06T10:31:21;94933.09;;;29.18;49.82
20003;BME280;10162;41.600;23.806;2022-07-06T10:33:49;94923.13;;;29.53;52.51
20003;BME280;10162;41.600;23.806;2022-07-06T10:36:15;94922.91;;;29.75;50.21
20003;BME280;10162;41.600;23.806;2022-07-06T10:39:16;94933.84;;;29.96;52.14
20003;BME280;10162;41.600;23.806;2022-07-06T10:42:44;94934.75;;;30.55;47.29
20003;BME280;10162;41.600;23.806;2022-07-06T10:45:13;94930.19;;;29.92;50.74
20003;BME280;10162;41.600;23.806;2022-07-06T10:51:28;94933.03;;;28.84;55.19
20003;BME280;10162;41.600;23.806;2022-07-06T10:54:00;94931.31;;;29.05;53.85
20003;BME280;10162;41.600;23.806;2022-07-06T10:56:36;94939.22;;;29.87;53.01
20003;BME280;10162;41.600;23.806;2022-07-06T11:02:49;94930.66;;;30.03;49.92
20003;BME280;10162;41.600;23.806;2022-07-06T11:05:41;94933.09;;;30.25;50.76
20003;BME280;10162;41.600;23.806;2022-07-06T11:11:56;94916.78;;;30.21;51.44
20003;BME280;10162;41.600;23.806;2022-07-06T11:14:23;94919.63;;;29.61;48.26
20003;BME280;10162;41.600;23.806;2022-07-06T11:23:01;94900.91;;;30.28;49.34
20003;BME280;10162;41.600;23.806;2022-07-06T11:25:27;94890.03;;;30.08;49.51
20003;BME280;10162;41.600;23.806;2022-07-06T11:27:57;94892.81;;;30.28;49.09
20003;BME280;10162;41.600;23.806;2022-07-06T11:30:23;94886.16;;;30.64;46.80
20003;BME280;10162;41.600;23.806;2022-07-06T11:32:50;94882.53;;;30.13;48.86
20003;BME280;10162;41.600;23.806;2022-07-06T11:35:22;94887.91;;;30.22;48.16
20003;BME280;10162;41.600;23.806;2022-07-06T11:38:26;94890.72;;;30.34;49.86
20003;BME280;10162;41.600;23.806;2022-07-06T11:40:55;94884.31;;;30.47;46.68
20003;BME280;10162;41.600;23.806;2022-07-06T11:43:20;94878.06;;;30.85;47.20
20003;BME280;10162;41.600;23.806;2022-07-06T11:45:46;94885.22;;;30.22;44.70
20003;BME280;10162;41.600;23.806;2022-07-06T11:51:58;94887.47;;;31.41;43.14
20003;BME280;10162;41.600;23.806;2022-07-06T11:54:25;94885.66;;;31.33;43.42
20003;BME280;10162;41.600;23.806;2022-07-06T11:56:56;94891.25;;;31.28;42.37
20003;BME280;10162;41.600;23.806;2022-07-06T12:03:01;94881.31;;;32.42;41.91
20003;BME280;10162;41.600;23.806;2022-07-06T12:05:31;94881.53;;;32.86;43.94
20003;BME280;10162;41.600;23.806;2022-07-06T12:08:07;94883.47;;;32.73;44.29
20003;BME280;10162;41.600;23.806;2022-07-06T12:10:34;94892.59;;;32.57;44.14
20003;BME280;10162;41.600;23.806;2022-07-06T12:13:04;94884.53;;;31.99;43.14
20003;BME280;10162;41.600;23.806;2022-07-06T12:15:30;94883.84;;;31.04;46.24
20003;BME280;10162;41.600;23.806;2022-07-06T12:21:18;94871.13;;;30.46;48.75
20003;BME280;10162;41.600;23.806;2022-07-06T12:23:49;94869.84;;;30.14;46.19
20003;BME280;10162;41.600;23.806;2022-07-06T12:26:17;94876.81;;;29.68;46.51
20003;BME280;10162;41.600;23.806;2022-07-06T12:29:02;94879.84;;;29.58;48.09
20003;BME280;10162;41.600;23.806;2022-07-06T12:31:37;94891.94;;;29.43;46.82
20003;BME280;10162;41.600;23.806;2022-07-06T12:34:04;94884.63;;;29.44;48.57
20003;BME280;10162;41.600;23.806;2022-07-06T12:36:31;94885.44;;;29.36;50.23
20003;BME280;10162;41.600;23.806;2022-07-06T12:39:17;94887.00;;;29.02;50.49
20003;BME280;10162;41.600;23.806;2022-07-06T12:41:55;94884.91;;;28.82;52.18
20003;BME280;10162;41.600;23.806;2022-07-06T12:44:23;94882.72;;;28.93;53.61
20003;BME280;10162;41.600;23.806;2022-07-06T12:46:56;94883.66;;;28.80;57.29
20003;BME280;10162;41.600;23.806;2022-07-06T12:49:40;94883.94;;;28.69;57.94
20003;BME280;10162;41.600;23.806;2022-07-06T12:54:34;94883.19;;;29.46;54.50
20003;BME280;10162;41.600;23.806;2022-07-06T12:57:23;94902.63;;;29.78;49.73
20003;BME280;10162;41.600;23.806;2022-07-06T13:02:22;94898.84;;;31.67;47.40
20003;BME280;10162;41.600;23.806;2022-07-06T13:07:47;94907.53;;;29.84;47.98
20003;BME280;10162;41.600;23.806;2022-07-06T13:10:15;94923.13;;;30.63;45.31
20003;BME280;10162;41.600;23.806;2022-07-06T13:12:41;94911.06;;;28.90;45.55
20003;BME280;10162;41.600;23.806;2022-07-06T13:15:08;94917.50;;;27.93;46.29
20003;BME280;10162;41.600;23.806;2022-07-06T13:21:21;94924.75;;;27.39;49.53
20003;BME280;10162;41.600;23.806;2022-07-06T13:23:47;94911.91;;;27.36;50.97
20003;BME280;10162;41.600;23.806;2022-07-06T13:26:13;94905.28;;;27.34;51.93
20003;BME280;10162;41.600;23.806;2022-07-06T13:32:38;94934.06;;;26.29;56.26
20003;BME280;10162;41.600;23.806;2022-07-06T13:35:05;94928.19;;;26.13;56.18
20003;BME280;10162;41.600;23.806;2022-07-06T13:37:49;94924.13;;;25.70;58.96
20003;BME280;10162;41.600;23.806;2022-07-06T13:40:16;94944.38;;;25.43;60.84
20003;BME280;10162;41.600;23.806;2022-07-06T13:42:42;94951.47;;;24.97;64.17
20003;BME280;10162;41.600;23.806;2022-07-06T13:45:08;94955.81;;;24.93;69.96
20003;BME280;10162;41.600;23.806;2022-07-06T13:47:43;94962.13;;;24.59;75.38
20003;BME280;10162;41.600;23.806;2022-07-06T13:50:09;94958.22;;;24.94;74.70
20003;BME280;10162;41.600;23.806;2022-07-06T13:52:36;94958.03;;;25.42;72.25
20003;BME280;10162;41.600;23.806;2022-07-06T13:55:04;94958.03;;;26.20;69.41
20003;BME280;10162;41.600;23.806;2022-07-06T14:00:37;94984.75;;;25.09;78.03
20003;BME280;10162;41.600;23.806;2022-07-06T14:03:03;94983.09;;;24.47;86.90
20003;BME280;10162;41.600;23.806;2022-07-06T14:05:28;94985.66;;;24.34;89.49
20003;BME280;10162;41.600;23.806;2022-07-06T14:08:03;95002.75;;;24.80;88.61
20003;BME280;10162;41.600;23.806;2022-07-06T14:10:29;94997.25;;;24.48;91.71
20003;BME280;10162;41.600;23.806;2022-07-06T14:12:55;95001.59;;;24.86;87.96
20003;BME280;10162;41.600;23.806;2022-07-06T14:15:21;94994.81;;;24.51;91.93
20003;BME280;10162;41.600;23.806;2022-07-06T14:20:46;94993.03;;;24.89;94.08
20003;BME280;10162;41.600;23.806;2022-07-06T14:23:13;94989.59;;;24.84;94.35
20003;BME280;10162;41.600;23.806;2022-07-06T14:25:40;94990.88;;;24.44;98.06
20003;BME280;10162;41.600;23.806;2022-07-06T14:28:14;95011.53;;;24.62;98.06
20003;BME280;10162;41.600;23.806;2022-07-06T14:30:44;95006.34;;;23.60;100.00
20003;BME280;10162;41.600;23.806;2022-07-06T14:33:11;94998.34;;;23.16;100.00
20003;BME280;10162;41.600;23.806;2022-07-06T14:35:39;95017.50;;;23.23;100.00
20003;BME280;10162;41.600;23.806;2022-07-06T14:40:43;95015.91;;;24.29;100.00
20003;BME280;10162;41.600;23.806;2022-07-06T14:43:09;95010.34;;;24.25;100.00
20003;BME280;10162;41.600;23.806;2022-07-06T14:45:36;95010.22;;;24.36;100.00
20003;BME280;10162;41.600;23.806;2022-07-06T14:48:13;94999.84;;;24.00;100.00
20003;BME280;10162;41.600;23.806;2022-07-06T14:50:38;95008.88;;;23.75;100.00
20003;BME280;10162;41.600;23.806;2022-07-06T14:53:04;94997.75;;;25.16;100.00
20003;BME280;10162;41.600;23.806;2022-07-06T14:55:30;94985.09;;;26.51;100.00
20003;BME280;10162;41.600;23.806;2022-07-06T14:58:01;95004.53;;;28.06;95.70
20003;BME280;10162;41.600;23.806;2022-07-06T15:00:27;94993.97;;;26.93;100.00
20003;BME280;10162;41.600;23.806;2022-07-06T15:02:53;95006.09;;;29.08;74.34
20003;BME280;10162;41.600;23.806;2022-07-06T15:05:19;95010.41;;;30.12;62.78
20003;BME280;10162;41.600;23.806;2022-07-06T15:07:47;95013.69;;;30.26;56.50
20003;BME280;10162;41.600;23.806;2022-07-06T15:10:13;95007.47;;;27.95;70.55
20003;BME280;10162;41.600;23.806;2022-07-06T15:12:38;95003.44;;;29.51;63.01
20003;BME280;10162;41.600;23.806;2022-07-06T15:15:05;95003.66;;;28.89;66.74
20003;BME280;10162;41.600;23.806;2022-07-06T15:18:01;94996.38;;;27.66;72.04
20003;BME280;10162;41.600;23.806;2022-07-06T15:20:27;94988.97;;;26.72;82.78
20003;BME280;10162;41.600;23.806;2022-07-06T15:22:53;95001.97;;;26.24;82.68
20003;BME280;10162;41.600;23.806;2022-07-06T15:25:19;94994.16;;;27.32;72.65
20003;BME280;10162;41.600;23.806;2022-07-06T15:31:07;94999.78;;;25.94;77.15
20003;BME280;10162;41.600;23.806;2022-07-06T15:33:33;94989.91;;;25.76;81.90
20003;BME280;10162;41.600;23.806;2022-07-06T15:35:59;94993.19;;;25.54;85.39
20003;BME280;10162;41.600;23.806;2022-07-06T15:38:26;94986.44;;;26.08;81.10
20003;BME280;10162;41.600;23.806;2022-07-06T15:40:52;94979.50;;;25.74;84.73
20003;BME280;10162;41.600;23.806;2022-07-06T15:43:23;94985.09;;;25.59;84.85
20003;BME280;10162;41.600;23.806;2022-07-06T15:46:02;94986.13;;;26.09;85.84
20003;BME280;10162;41.600;23.806;2022-07-06T15:48:29;94999.41;;;25.31;90.72
20003;BME280;10162;41.600;23.806;2022-07-06T15:50:56;95004.47;;;26.02;88.74
20003;BME280;10162;41.600;23.806;2022-07-06T15:53:22;94992.34;;;25.91;85.98
20003;BME280;10162;41.600;23.806;2022-07-06T15:55:49;94997.03;;;26.45;81.56
20003;BME280;10162;41.600;23.806;2022-07-06T15:58:18;94986.66;;;27.43;73.99
20003;BME280;10162;41.600;23.806;2022-07-06T16:00:44;95015.53;;;26.88;74.92
20003;BME280;10162;41.600;23.806;2022-07-06T16:03:10;95004.69;;;26.93;77.35